createdAt,value
2022-09-23T00:01:36.236Z,101266.93
2022-09-23T00:04:05.109Z,101267.61
2022-09-23T00:06:34.005Z,101268.48
2022-09-23T00:09:02.880Z,101263.92
2022-09-23T00:11:31.786Z,101266.34
2022-09-23T00:14:01.295Z,101267.70
2022-09-23T00:16:34.533Z,101266.46
2022-09-23T00:19:05.075Z,101267.51
2022-09-23T00:21:33.925Z,101263.82
2022-09-23T00:24:02.818Z,101264.51
2022-09-23T00:26:31.701Z,101264.14
2022-09-23T00:29:00.493Z,101262.20
2022-09-23T00:31:29.415Z,101266.55
2022-09-23T00:34:01.891Z,101267.55
2022-09-23T00:36:32.800Z,101264.75
2022-09-23T00:39:03.330Z,101265.80
2022-09-23T00:41:35.507Z,101267.34
2022-09-23T00:44:42.453Z,101269.59
2022-09-23T00:47:25.002Z,101270.63
2022-09-23T00:50:06.435Z,101272.87
2022-09-23T00:52:36.563Z,101270.23
2022-09-23T00:55:17.095Z,101269.52
2022-09-23T00:57:48.073Z,101268.13
2022-09-23T01:00:17.075Z,101269.50
2022-09-23T01:02:47.055Z,101267.75
2022-09-23T01:05:17.548Z,101265.98
2022-09-23T01:07:47.243Z,101269.98
2022-09-23T01:10:18.913Z,101272.23
2022-09-23T01:13:07.741Z,101271.34
2022-09-23T01:15:46.574Z,101272.89
2022-09-23T01:18:15.322Z,101272.35
2022-09-23T01:20:59.629Z,101275.30
2022-09-23T01:23:37.399Z,101274.77
2022-09-23T01:26:31.108Z,101277.34
2022-09-23T01:29:24.684Z,101279.77
2022-09-23T01:32:03.497Z,101280.27
2022-09-23T01:34:42.457Z,101283.55
2022-09-23T01:37:25.476Z,101289.80
2022-09-23T01:40:11.501Z,101288.56
2022-09-23T01:42:53.234Z,101285.92
2022-09-23T01:45:36.003Z,101285.23
2022-09-23T01:48:18.895Z,101286.10
2022-09-23T01:51:17.258Z,101283.30
2022-09-23T01:53:52.765Z,101282.95
2022-09-23T01:56:44.246Z,101287.11
2022-09-23T01:59:35.836Z,101289.21
2022-09-23T02:02:10.359Z,101291.85
2022-09-23T02:05:12.857Z,101290.13
2022-09-23T02:07:58.607Z,101287.89
2022-09-23T02:10:41.456Z,101282.70
2022-09-23T02:13:18.489Z,101282.20
2022-09-23T02:15:53.566Z,101277.88
2022-09-23T02:18:30.645Z,101279.63
2022-09-23T02:21:04.107Z,101281.91
2022-09-23T02:23:42.819Z,101283.84
2022-09-23T02:26:56.757Z,101283.85
2022-09-23T02:29:34.446Z,101289.41
2022-09-23T02:32:20.258Z,101292.37
2022-09-23T02:34:59.697Z,101291.50
2022-09-23T02:37:43.876Z,101292.88
2022-09-23T02:40:25.534Z,101293.55
2022-09-23T02:43:20.259Z,101291.80
2022-09-23T02:45:50.224Z,101296.81
2022-09-23T02:48:33.122Z,101296.61
2022-09-23T02:51:04.048Z,101291.36
2022-09-23T02:53:36.980Z,101290.81
2022-09-23T02:56:35.248Z,101293.05
2022-09-23T02:59:04.790Z,101296.49
2022-09-23T03:01:39.622Z,101293.52
2022-09-23T03:04:58.833Z,101293.30
2022-09-23T03:07:54.369Z,101294.48
2022-09-23T03:10:31.383Z,101299.31
2022-09-23T03:13:20.168Z,101299.80
2022-09-23T03:16:11.732Z,101299.79
2022-09-23T03:18:52.803Z,101301.52
2022-09-23T03:21:28.976Z,101297.66
2022-09-23T03:24:01.830Z,101295.19
2022-09-23T03:26:37.827Z,101294.79
2022-09-23T03:29:11.628Z,101288.47
2022-09-23T03:31:42.770Z,101293.16
2022-09-23T03:34:21.200Z,101294.19
2022-09-23T03:37:06.466Z,101293.14
2022-09-23T03:40:03.842Z,101293.31
2022-09-23T03:42:35.293Z,101294.35
2022-09-23T03:45:09.801Z,101293.27
2022-09-23T03:47:39.868Z,101291.33
2022-09-23T03:50:09.295Z,101294.97
2022-09-23T03:52:40.153Z,101291.85
2022-09-23T03:55:09.997Z,101292.39
2022-09-23T03:57:39.038Z,101290.83
2022-09-23T04:00:10.010Z,101291.51
2022-09-23T04:02:42.196Z,101295.67
2022-09-23T04:05:13.146Z,101300.53
2022-09-23T04:07:42.916Z,101301.91
2022-09-23T04:10:12.065Z,101305.94
2022-09-23T04:12:40.982Z,101306.52
2022-09-23T04:15:10.488Z,101307.77
2022-09-23T04:17:39.215Z,101307.65
2022-09-23T04:20:08.348Z,101311.17
2022-09-23T04:22:39.006Z,101314.02
2022-09-23T04:25:08.794Z,101317.57
2022-09-23T04:27:38.039Z,101325.29
2022-09-23T04:30:07.955Z,101327.10
2022-09-23T04:32:38.274Z,101328.04
2022-09-23T04:35:08.313Z,101328.44
2022-09-23T04:37:37.436Z,101331.81
2022-09-23T04:40:07.074Z,101333.42
2022-09-23T04:42:35.978Z,101334.69
2022-09-23T04:45:06.116Z,101336.06
2022-09-23T04:47:35.003Z,101339.33
2022-09-23T04:50:04.055Z,101341.95
2022-09-23T04:52:32.952Z,101339.38
2022-09-23T04:55:01.905Z,101340.60
2022-09-23T04:57:30.706Z,101341.83
2022-09-23T05:00:00.151Z,101340.27
2022-09-23T05:02:29.183Z,101336.97
2022-09-23T05:04:58.791Z,101333.34
2022-09-23T05:07:27.604Z,101337.17
2022-09-23T05:09:56.634Z,101338.21
2022-09-23T05:12:25.393Z,101336.84
2022-09-23T05:14:54.266Z,101335.48
2022-09-23T05:17:23.175Z,101338.15
2022-09-23T05:19:52.086Z,101336.45
2022-09-23T05:22:21.013Z,101333.86
2022-09-23T05:24:49.823Z,101332.52
2022-09-23T05:27:18.800Z,101329.96
2022-09-23T05:29:48.299Z,101327.23
2022-09-23T05:32:17.809Z,101328.65
2022-09-23T05:34:46.606Z,101326.11
2022-09-23T05:37:15.542Z,101323.02
2022-09-23T05:39:44.483Z,101326.02
2022-09-23T05:42:13.533Z,101326.38
2022-09-23T05:44:42.495Z,101326.58
2022-09-23T05:47:11.332Z,101329.92
2022-09-23T05:49:58.509Z,101333.62
2022-09-23T05:52:28.799Z,101338.00
2022-09-23T05:54:57.612Z,101340.81
2022-09-23T05:57:26.915Z,101341.34
2022-09-23T05:59:55.633Z,101343.26
2022-09-23T06:02:24.572Z,101345.89
2022-09-23T06:04:53.658Z,101347.46
2022-09-23T06:07:22.532Z,101343.63
2022-09-23T06:09:54.455Z,101346.58
2022-09-23T06:12:23.668Z,101347.82
2022-09-23T06:14:53.298Z,101349.73
2022-09-23T06:17:22.147Z,101344.33
2022-09-23T06:19:51.017Z,101344.14
2022-09-23T06:22:19.776Z,101344.14
2022-09-23T06:24:48.602Z,101342.39
2022-09-23T06:27:17.431Z,101342.21
2022-09-23T06:29:46.241Z,101339.93
2022-09-23T06:32:14.997Z,101339.40
2022-09-23T06:34:51.624Z,101335.88
2022-09-23T06:37:21.102Z,101335.33
2022-09-23T06:39:51.313Z,101336.16
2022-09-23T06:42:20.286Z,101335.24
2022-09-23T06:44:49.172Z,101339.75
2022-09-23T06:47:18.222Z,101338.65
2022-09-23T06:49:47.037Z,101343.69
2022-09-23T06:52:15.895Z,101345.92
2022-09-23T06:54:44.692Z,101343.73
2022-09-23T06:57:13.809Z,101346.86
2022-09-23T06:59:42.770Z,101346.99
2022-09-23T07:02:12.596Z,101347.45
2022-09-23T07:04:41.672Z,101348.09
2022-09-23T07:07:11.899Z,101346.80
2022-09-23T07:09:41.023Z,101347.09
2022-09-23T07:12:09.975Z,101348.98
2022-09-23T07:14:38.858Z,101345.98
2022-09-23T07:17:07.680Z,101342.09
2022-09-23T07:19:36.536Z,101342.39
2022-09-23T07:22:05.842Z,101346.05
2022-09-23T07:24:34.808Z,101348.11
2022-09-23T07:27:03.709Z,101345.11
2022-09-23T07:29:44.607Z,101342.78
2022-09-23T07:32:17.287Z,101340.41
2022-09-23T07:34:47.583Z,101338.42
2022-09-23T07:37:18.232Z,101338.39
2022-09-23T07:39:47.159Z,101339.95
2022-09-23T07:42:16.103Z,101343.45
2022-09-23T07:44:48.246Z,101344.98
2022-09-23T07:47:17.680Z,101344.22
2022-09-23T07:49:46.541Z,101344.52
2022-09-23T07:52:15.472Z,101347.08
2022-09-23T07:54:48.052Z,101346.68
2022-09-23T07:57:16.880Z,101341.53
2022-09-23T07:59:45.841Z,101345.88
2022-09-23T08:02:16.788Z,101347.08
2022-09-23T08:04:46.660Z,101337.59
2022-09-23T08:07:16.774Z,101340.48
2022-09-23T08:09:46.072Z,101339.30
2022-09-23T08:12:17.710Z,101343.48
2022-09-23T08:14:46.686Z,101343.38
2022-09-23T08:17:15.614Z,101342.03
2022-09-23T08:19:44.731Z,101339.66
2022-09-23T08:22:13.612Z,101332.58
2022-09-23T08:24:42.419Z,101324.20
2022-09-23T08:27:12.976Z,101323.67
2022-09-23T08:29:41.868Z,101326.80
2022-09-23T08:32:10.751Z,101330.46
2022-09-23T08:34:40.371Z,101334.39
2022-09-23T08:37:12.277Z,101330.64
2022-09-23T08:39:41.131Z,101326.14
2022-09-23T08:42:27.990Z,101329.42
2022-09-23T08:45:03.058Z,101327.21
2022-09-23T08:47:40.899Z,101325.21
2022-09-23T08:50:34.347Z,101322.98
2022-09-23T08:53:14.852Z,101321.58
2022-09-23T08:55:53.825Z,101321.71
2022-09-23T08:58:26.384Z,101318.98
2022-09-23T09:01:33.247Z,101309.80
2022-09-23T09:04:12.808Z,101307.44
2022-09-23T09:06:53.633Z,101305.77
2022-09-23T09:09:36.550Z,101304.60
2022-09-23T09:12:45.603Z,101300.75
2022-09-23T09:15:19.970Z,101299.30
2022-09-23T09:18:10.416Z,101297.86
2022-09-23T09:21:01.316Z,101295.88
2022-09-23T09:23:48.753Z,101297.23
2022-09-23T09:26:25.865Z,101299.77
2022-09-23T09:29:35.396Z,101301.23
2022-09-23T09:32:46.723Z,101302.95
2022-09-23T09:35:27.769Z,101303.11
2022-09-23T09:37:57.017Z,101303.31
2022-09-23T09:40:25.976Z,101303.09
2022-09-23T09:42:55.228Z,101303.69
2022-09-23T09:45:29.257Z,101302.58
2022-09-23T09:48:15.411Z,101302.46
2022-09-23T09:50:52.676Z,101297.95
2022-09-23T09:53:32.924Z,101298.27
2022-09-23T09:56:10.362Z,101292.35
2022-09-23T09:58:47.562Z,101287.42
2022-09-23T10:01:29.227Z,101289.16
2022-09-23T10:04:01.582Z,101287.23
2022-09-23T10:06:36.213Z,101283.75
2022-09-23T10:09:14.247Z,101283.92
2022-09-23T10:11:44.791Z,101280.87
2022-09-23T10:14:19.624Z,101280.77
2022-09-23T10:17:06.312Z,101282.64
2022-09-23T10:19:38.827Z,101278.63
2022-09-23T10:22:24.695Z,101276.35
2022-09-23T10:24:55.566Z,101271.86
2022-09-23T10:27:31.937Z,101270.27
2022-09-23T10:30:22.190Z,101271.41
2022-09-23T10:32:55.303Z,101266.23
2022-09-23T10:35:28.587Z,101263.73
2022-09-23T10:38:00.135Z,101268.52
2022-09-23T10:40:58.828Z,101267.30
2022-09-23T10:43:57.934Z,101266.31
2022-09-23T10:46:45.196Z,101267.17
2022-09-23T10:49:39.156Z,101261.84
2022-09-23T10:52:26.268Z,101257.30
2022-09-23T10:55:12.202Z,101252.70
2022-09-23T10:57:46.980Z,101248.17
2022-09-23T11:00:25.346Z,101250.92
2022-09-23T11:03:03.276Z,101250.03
2022-09-23T11:05:36.294Z,101251.52
2022-09-23T11:08:23.221Z,101248.50
2022-09-23T11:11:12.050Z,101250.78
2022-09-23T11:13:59.125Z,101246.31
2022-09-23T11:16:54.505Z,101242.27
2022-09-23T11:19:51.095Z,101242.34
2022-09-23T11:22:38.388Z,101242.11
2022-09-23T11:25:44.246Z,101237.39
2022-09-23T11:28:45.808Z,101238.48
2022-09-23T11:31:59.661Z,101237.85
2022-09-23T11:35:16.944Z,101230.81
2022-09-23T11:37:50.870Z,101224.30
2022-09-23T11:40:23.261Z,101222.70
2022-09-23T11:43:10.270Z,101221.17
2022-09-23T11:45:50.268Z,101217.48
2022-09-23T11:48:35.004Z,101218.71
2022-09-23T11:51:13.883Z,101218.20
2022-09-23T11:53:50.519Z,101215.16
2022-09-23T11:56:34.984Z,101209.98
2022-09-23T11:59:16.407Z,101205.20
2022-09-23T12:02:14.738Z,101204.06
2022-09-23T12:05:04.932Z,101201.37
2022-09-23T12:07:57.066Z,101198.43
2022-09-23T12:10:57.718Z,101194.94
2022-09-23T12:14:01.696Z,101196.86
2022-09-23T12:17:02.010Z,101195.92
2022-09-23T12:19:52.626Z,101195.63
2022-09-23T12:22:54.789Z,101193.17
2022-09-23T12:25:35.367Z,101193.98
2022-09-23T12:28:26.464Z,101196.60
2022-09-23T12:30:59.350Z,101197.83
2022-09-23T12:33:34.515Z,101196.77
2022-09-23T12:36:13.275Z,101194.68
2022-09-23T12:38:56.491Z,101191.42
2022-09-23T12:41:39.225Z,101186.48
2022-09-23T12:44:47.439Z,101189.60
2022-09-23T12:47:25.468Z,101184.00
2022-09-23T12:49:56.930Z,101179.61
2022-09-23T12:52:32.646Z,101178.17
2022-09-23T12:55:26.911Z,101174.55
2022-09-23T12:57:55.804Z,101175.66
2022-09-23T13:00:28.875Z,101175.85
2022-09-23T13:03:19.647Z,101175.94
2022-09-23T13:06:20.338Z,101172.92
2022-09-23T13:08:50.514Z,101171.81
2022-09-23T13:11:26.428Z,101173.52
2022-09-23T13:14:02.542Z,101178.16
2022-09-23T13:16:46.274Z,101182.42
2022-09-23T13:19:34.179Z,101180.27
2022-09-23T13:22:09.755Z,101179.98
2022-09-23T13:24:41.669Z,101180.77
2022-09-23T13:27:19.490Z,101182.19
2022-09-23T13:30:02.639Z,101183.30
2022-09-23T13:32:45.734Z,101180.42
2022-09-23T13:35:29.471Z,101177.96
2022-09-23T13:37:58.923Z,101174.51
2022-09-23T13:40:30.152Z,101174.05
2022-09-23T13:43:03.676Z,101174.02
2022-09-23T13:45:38.128Z,101174.73
2022-09-23T13:48:12.206Z,101173.53
2022-09-23T13:50:48.015Z,101172.52
2022-09-23T13:53:32.264Z,101174.20
2022-09-23T13:56:28.833Z,101169.35
2022-09-23T13:59:28.974Z,101170.63
2022-09-23T14:02:12.876Z,101174.05
2022-09-23T14:04:41.916Z,101168.91
2022-09-23T14:07:14.711Z,101169.27
2022-09-23T14:09:52.848Z,101168.17
2022-09-23T14:12:24.927Z,101170.95
2022-09-23T14:14:53.995Z,101170.89
2022-09-23T14:17:23.944Z,101168.34
2022-09-23T14:19:53.042Z,101160.38
2022-09-23T14:22:28.044Z,101162.72
2022-09-23T14:24:58.043Z,101161.32
2022-09-23T14:27:36.880Z,101158.30
2022-09-23T14:30:06.400Z,101159.28
2022-09-23T14:32:35.482Z,101161.46
2022-09-23T14:35:04.763Z,101163.66
2022-09-23T14:37:57.922Z,101166.76
2022-09-23T14:40:28.652Z,101172.20
2022-09-23T14:43:00.431Z,101176.75
2022-09-23T14:45:35.422Z,101181.17
2022-09-23T14:48:23.089Z,101179.25
2022-09-23T14:50:56.457Z,101178.08
2022-09-23T14:53:46.746Z,101176.77
2022-09-23T14:56:25.189Z,101179.45
2022-09-23T14:59:00.281Z,101179.99
2022-09-23T15:01:35.014Z,101180.92
2022-09-23T15:04:15.658Z,101180.73
2022-09-23T15:07:07.606Z,101181.07
2022-09-23T15:09:40.132Z,101182.15
2022-09-23T15:12:12.971Z,101183.08
2022-09-23T15:14:50.802Z,101184.94
2022-09-23T15:17:31.147Z,101185.38
2022-09-23T15:20:07.133Z,101188.63
2022-09-23T15:22:48.829Z,101186.98
2022-09-23T15:25:36.447Z,101186.70
2022-09-23T15:28:11.494Z,101186.12
2022-09-23T15:30:40.629Z,101189.50
2022-09-23T15:33:16.619Z,101189.16
2022-09-23T15:35:49.220Z,101190.48
2022-09-23T15:38:18.363Z,101188.44
2022-09-23T15:40:49.222Z,101188.12
2022-09-23T15:43:25.073Z,101189.57
2022-09-23T15:46:22.690Z,101192.44
2022-09-23T15:48:59.073Z,101195.86
2022-09-23T15:51:28.887Z,101199.80
2022-09-23T15:53:58.209Z,101199.18
2022-09-23T15:56:27.625Z,101197.84
2022-09-23T15:58:56.812Z,101199.66
2022-09-23T16:01:34.031Z,101201.66
2022-09-23T16:04:04.840Z,101204.86
2022-09-23T16:06:36.585Z,101205.08
2022-09-23T16:09:05.828Z,101203.73
2022-09-23T16:11:35.742Z,101215.25
2022-09-23T16:14:04.706Z,101219.70
2022-09-23T16:16:34.115Z,101222.52
2022-09-23T16:19:02.883Z,101223.92
2022-09-23T16:21:31.790Z,101227.12
2022-09-23T16:24:00.997Z,101228.74
2022-09-23T16:26:33.263Z,101229.14
2022-09-23T16:29:03.070Z,101228.13
2022-09-23T16:31:32.623Z,101233.08
2022-09-23T16:34:02.724Z,101232.41
2022-09-23T16:36:38.755Z,101232.36
2022-09-23T16:39:11.289Z,101234.53
2022-09-23T16:41:43.896Z,101239.67
2022-09-23T16:44:12.917Z,101237.61
2022-09-23T16:46:43.367Z,101240.61
2022-09-23T16:49:12.622Z,101240.80
2022-09-23T16:51:41.925Z,101242.73
2022-09-23T16:54:13.403Z,101244.19
2022-09-23T16:56:47.094Z,101247.75
2022-09-23T16:59:17.498Z,101251.27
2022-09-23T17:02:05.245Z,101252.54
2022-09-23T17:04:34.306Z,101253.27
2022-09-23T17:07:03.857Z,101254.40
2022-09-23T17:09:33.056Z,101254.48
2022-09-23T17:12:18.235Z,101258.71
2022-09-23T17:14:47.632Z,101260.31
2022-09-23T17:17:16.734Z,101263.35
2022-09-23T17:19:45.831Z,101262.31
2022-09-23T17:22:15.700Z,101264.79
2022-09-23T17:24:45.861Z,101268.49
2022-09-23T17:27:17.723Z,101268.52
2022-09-23T17:29:46.686Z,101266.61
2022-09-23T17:32:15.598Z,101267.72
2022-09-23T17:34:45.374Z,101266.70
2022-09-23T17:37:15.003Z,101268.30
2022-09-23T17:39:44.833Z,101272.33
2022-09-23T17:42:15.852Z,101268.50
2022-09-23T17:44:44.936Z,101269.95
2022-09-23T17:47:14.924Z,101265.42
2022-09-23T17:49:45.722Z,101264.05
2022-09-23T17:52:15.058Z,101262.67
2022-09-23T17:54:45.685Z,101264.79
2022-09-23T17:57:15.303Z,101265.16
2022-09-23T17:59:44.950Z,101265.52
2022-09-23T18:02:15.843Z,101264.85
2022-09-23T18:04:45.216Z,101263.12
2022-09-23T18:07:14.155Z,101261.58
2022-09-23T18:09:43.661Z,101267.73
2022-09-23T18:12:12.966Z,101270.22
2022-09-23T18:14:42.735Z,101270.10
2022-09-23T18:17:11.934Z,101269.26
2022-09-23T18:19:41.169Z,101272.60
2022-09-23T18:22:10.691Z,101272.29
2022-09-23T18:24:41.786Z,101269.89
2022-09-23T18:27:10.973Z,101268.52
2022-09-23T18:29:40.068Z,101270.34
2022-09-23T18:32:13.883Z,101270.87
2022-09-23T18:34:44.944Z,101268.95
2022-09-23T18:37:16.153Z,101270.89
2022-09-23T18:39:46.085Z,101272.64
2022-09-23T18:42:15.481Z,101278.29
2022-09-23T18:44:44.681Z,101278.85
2022-09-23T18:47:33.848Z,101277.01
2022-09-23T18:50:21.897Z,101278.11
2022-09-23T18:52:51.190Z,101284.97
2022-09-23T18:55:20.184Z,101285.16
2022-09-23T18:57:49.415Z,101287.09
2022-09-23T19:00:19.812Z,101290.63
2022-09-23T19:02:49.213Z,101286.28
2022-09-23T19:05:19.465Z,101288.07
2022-09-23T19:07:48.529Z,101286.55
2022-09-23T19:10:19.577Z,101287.52
2022-09-23T19:12:49.693Z,101286.89
2022-09-23T19:15:18.853Z,101295.48
2022-09-23T19:17:48.200Z,101293.10
2022-09-23T19:20:17.808Z,101294.01
2022-09-23T19:22:48.139Z,101301.73
2022-09-23T19:25:17.881Z,101305.42
2022-09-23T19:27:47.245Z,101306.32
2022-09-23T19:30:16.656Z,101308.42
2022-09-23T19:32:46.259Z,101308.96
2022-09-23T19:35:16.436Z,101308.45
2022-09-23T19:37:49.740Z,101307.23
2022-09-23T19:40:19.129Z,101308.15
2022-09-23T19:42:48.475Z,101303.80
2022-09-23T19:45:17.772Z,101303.11
2022-09-23T19:47:46.771Z,101301.20
2022-09-23T19:50:16.337Z,101302.09
2022-09-23T19:52:45.573Z,101300.00
2022-09-23T19:55:14.881Z,101302.99
2022-09-23T19:57:44.087Z,101302.66
2022-09-23T20:00:15.728Z,101302.33
2022-09-23T20:02:45.095Z,101307.23
2022-09-23T20:05:18.415Z,101310.38
2022-09-23T20:07:49.366Z,101311.95
2022-09-23T20:10:18.910Z,101311.95
2022-09-23T20:12:48.066Z,101311.95
2022-09-23T20:15:17.781Z,101310.73
2022-09-23T20:17:47.019Z,101310.05
2022-09-23T20:20:16.495Z,101310.95
2022-09-23T20:22:46.331Z,101309.23
2022-09-23T20:25:15.802Z,101305.74
2022-09-23T20:27:51.760Z,101307.33
2022-09-23T20:30:21.575Z,101304.20
2022-09-23T20:32:50.683Z,101301.59
2022-09-23T20:35:20.077Z,101301.25
2022-09-23T20:37:49.619Z,101301.96
2022-09-23T20:40:18.760Z,101301.10
2022-09-23T20:42:49.349Z,101301.45
2022-09-23T20:45:18.812Z,101303.92
2022-09-23T20:47:48.148Z,101298.69
2022-09-23T20:50:17.664Z,101300.45
2022-09-23T20:52:46.921Z,101306.95
2022-09-23T20:55:15.915Z,101308.90
2022-09-23T20:57:45.643Z,101305.59
2022-09-23T21:00:15.436Z,101305.25
2022-09-23T21:02:45.459Z,101307.52
2022-09-23T21:05:15.831Z,101307.69
2022-09-23T21:07:47.336Z,101305.77
2022-09-23T21:10:16.757Z,101300.54
2022-09-23T21:12:50.725Z,101303.52
2022-09-23T21:15:20.292Z,101304.77
2022-09-23T21:17:49.463Z,101307.02
2022-09-23T21:20:18.651Z,101303.70
2022-09-23T21:22:50.715Z,101303.54
2022-09-23T21:25:28.639Z,101302.66
2022-09-23T21:28:02.428Z,101302.48
2022-09-23T21:30:31.668Z,101300.23
2022-09-23T21:33:01.642Z,101302.13
2022-09-23T21:35:31.765Z,101306.33
2022-09-23T21:38:01.087Z,101311.40
2022-09-23T21:40:49.512Z,101311.58
2022-09-23T21:43:19.605Z,101312.81
2022-09-23T21:45:48.531Z,101313.70
2022-09-23T21:48:17.428Z,101312.14
2022-09-23T21:50:55.391Z,101309.02
2022-09-23T21:53:24.827Z,101311.98
2022-09-23T21:55:54.329Z,101314.59
2022-09-23T21:58:23.528Z,101318.09
2022-09-23T22:00:52.583Z,101315.80
2022-09-23T22:03:22.036Z,101311.79
2022-09-23T22:06:22.153Z,101308.65
2022-09-23T22:08:54.558Z,101309.36
2022-09-23T22:11:43.730Z,101307.63
2022-09-23T22:14:14.363Z,101308.85
2022-09-23T22:16:43.967Z,101307.09
2022-09-23T22:19:15.956Z,101303.09
2022-09-23T22:21:46.178Z,101303.96
2022-09-23T22:24:15.724Z,101305.37
2022-09-23T22:26:45.777Z,101304.33
2022-09-23T22:29:34.913Z,101305.02
2022-09-23T22:32:24.435Z,101302.58
2022-09-23T22:34:53.747Z,101302.23
2022-09-23T22:37:34.680Z,101300.33
2022-09-23T22:40:09.772Z,101300.52
2022-09-23T22:42:39.842Z,101299.95
2022-09-23T22:45:11.828Z,101299.61
2022-09-23T22:47:45.841Z,101298.05
2022-09-23T22:50:15.556Z,101298.23
2022-09-23T22:52:45.930Z,101299.45
2022-09-23T22:55:14.921Z,101299.45
2022-09-23T22:57:44.222Z,101298.94
2022-09-23T23:00:14.086Z,101301.73
2022-09-23T23:02:43.436Z,101305.23
2022-09-23T23:05:15.097Z,101306.62
2022-09-23T23:07:44.307Z,101311.68
2022-09-23T23:10:14.646Z,101315.01
2022-09-23T23:12:44.454Z,101313.44
2022-09-23T23:15:13.637Z,101315.88
2022-09-23T23:17:44.004Z,101315.17
2022-09-23T23:20:13.874Z,101314.65
2022-09-23T23:22:43.088Z,101315.17
2022-09-23T23:25:12.479Z,101315.17
2022-09-23T23:27:41.674Z,101313.44
2022-09-23T23:30:11.893Z,101313.95
2022-09-23T23:32:41.090Z,101316.39
2022-09-23T23:35:11.126Z,101317.61
2022-09-23T23:37:41.357Z,101315.69
2022-09-23T23:40:11.211Z,101312.54
2022-09-23T23:42:40.445Z,101313.23
2022-09-23T23:45:09.953Z,101312.90
2022-09-23T23:47:39.257Z,101313.75
2022-09-23T23:50:10.293Z,101309.92
2022-09-23T23:52:39.929Z,101307.13
2022-09-23T23:55:10.023Z,101305.73
2022-09-23T23:57:39.156Z,101303.13
